createdAt,value
2023-02-05T00:01:21.728Z,-0.50
2023-02-05T00:16:25.001Z,-0.70
2023-02-05T00:31:27.254Z,-0.60
2023-02-05T00:46:29.316Z,-0.80
2023-02-05T01:01:31.422Z,-0.90
2023-02-05T01:16:33.396Z,-0.90
2023-02-05T01:31:35.599Z,-1.00
2023-02-05T01:46:40.056Z,-0.80
2023-02-05T02:01:43.487Z,-0.80
2023-02-05T02:16:45.875Z,-1.10
2023-02-05T02:31:57.378Z,-1.10
2023-02-05T02:47:05.951Z,-1.00
2023-02-05T03:02:11.358Z,-0.90
2023-02-05T03:17:18.730Z,-1.10
2023-02-05T03:32:57.651Z,-1.00
2023-02-05T03:48:14.811Z,-1.10
2023-02-05T04:03:17.246Z,-1.10
2023-02-05T04:18:19.913Z,-1.40
2023-02-05T04:33:21.922Z,-1.50
2023-02-05T04:48:23.879Z,-1.70
2023-02-05T05:03:25.882Z,-1.70
2023-02-05T05:18:28.205Z,-1.70
2023-02-05T05:33:30.165Z,-1.50
2023-02-05T05:48:32.289Z,-1.40
2023-02-05T06:03:34.624Z,-1.70
2023-02-05T06:18:36.977Z,-1.70
2023-02-05T06:33:38.938Z,-2.40
2023-02-05T06:48:40.914Z,-2.10
2023-02-05T07:03:42.899Z,-1.90
2023-02-05T07:18:44.831Z,-2.30
2023-02-05T07:33:47.981Z,-2.20
2023-02-05T07:48:50.021Z,-2.30
2023-02-05T08:03:52.009Z,-2.10
2023-02-05T08:18:53.948Z,-1.90
2023-02-05T08:33:57.910Z,-0.70
2023-02-05T08:49:00.372Z,0.10
2023-02-05T09:04:04.197Z,0.10
2023-02-05T09:19:06.653Z,0.10
2023-02-05T09:34:08.658Z,0.00
2023-02-05T09:49:30.262Z,0.70
2023-02-05T10:04:32.233Z,0.30
2023-02-05T10:19:57.642Z,1.10
2023-02-05T10:35:05.761Z,0.50
2023-02-05T10:50:23.162Z,0.20
2023-02-05T11:05:34.745Z,0.00
2023-02-05T11:20:40.311Z,-0.10
2023-02-05T11:36:00.282Z,0.00
2023-02-05T11:51:04.781Z,0.10
2023-02-05T12:06:17.579Z,0.40
2023-02-05T12:21:30.265Z,0.30
2023-02-05T12:36:37.835Z,0.40
2023-02-05T12:52:01.348Z,0.80
2023-02-05T13:07:15.821Z,1.10
2023-02-05T13:22:44.189Z,0.90
2023-02-05T13:37:51.673Z,0.90
2023-02-05T13:52:53.577Z,1.20
2023-02-05T14:07:57.919Z,0.80
2023-02-05T14:23:01.838Z,0.90
2023-02-05T14:38:28.886Z,0.70
2023-02-05T14:53:32.894Z,0.60
2023-02-05T15:08:34.853Z,0.70
2023-02-05T15:23:48.879Z,1.10
2023-02-05T15:39:09.425Z,1.30
2023-02-05T15:54:20.170Z,1.40
2023-02-05T16:09:25.176Z,1.20
2023-02-05T16:24:29.694Z,0.80
2023-02-05T16:39:46.004Z,0.60
2023-02-05T16:54:48.155Z,0.30
2023-02-05T17:09:50.956Z,0.00
2023-02-05T17:24:54.622Z,-0.10
2023-02-05T17:39:57.879Z,-0.30
2023-02-05T17:55:01.082Z,-0.50
2023-02-05T18:10:04.505Z,-0.70
2023-02-05T18:25:07.630Z,-0.70
2023-02-05T18:40:10.229Z,-0.90
2023-02-05T18:55:12.609Z,-0.90
2023-02-05T19:10:14.750Z,-1.20
2023-02-05T19:25:17.340Z,-0.80
2023-02-05T19:40:19.495Z,-1.60
2023-02-05T19:55:21.494Z,-1.50
2023-02-05T20:10:24.117Z,-1.10
2023-02-05T20:25:26.063Z,-1.00
2023-02-05T20:40:28.004Z,-0.90
2023-02-05T20:55:29.958Z,-0.90
2023-02-05T21:10:32.141Z,-0.90
2023-02-05T21:25:36.636Z,-1.00
2023-02-05T21:40:38.985Z,-0.90
2023-02-05T21:55:40.926Z,-0.80
2023-02-05T22:10:42.843Z,-0.80
2023-02-05T22:25:48.335Z,-1.20
2023-02-05T22:40:50.429Z,-1.20
2023-02-05T22:55:52.424Z,-1.30
2023-02-05T23:10:54.381Z,-1.30
2023-02-05T23:25:56.435Z,-1.50
2023-02-05T23:40:59.373Z,-1.10
2023-02-05T23:56:02.301Z,-1.00
